METAR AND TAF INFORMATION
METAR FOR LGRP
ADDS - METARS form results

(1035 UTC 13 August 2020)
Data provider http://aviationweather.gov/metar/data/
 
METAR text: LGRP 131020Z 24014KT 9999 FEW018 31/22 Q1007 NOSIG
Conditions at: LGRP (RHODES/DIAGORAS , GR) observed 1020 UTC 13 August 2020
Temperature: 31.0°C (88°F)
Dewpoint: 22.0°C (72°F) [RH = 59%]
Pressure (altimeter): 29.73 inches Hg (1007.0 mb)
Winds: from the WSW (240 degrees) at 16 MPH (14 knots; 7.2 m/s)
Visibility: 6 or more miles (10+ km)
Ceiling: at least 12,000 feet AGL
Clouds: few clouds at 1800 feet AGL
Weather: no significant weather observed at this time

METAR text: LGRP 130950Z 24014KT 9999 FEW018 31/22 Q1007 NOSIG
Conditions at: LGRP (RHODES/DIAGORAS , GR) observed 0950 UTC 13 August 2020
Temperature: 31.0°C (88°F)
Dewpoint: 22.0°C (72°F) [RH = 59%]
Pressure (altimeter): 29.73 inches Hg (1007.0 mb)
Winds: from the WSW (240 degrees) at 16 MPH (14 knots; 7.2 m/s)
Visibility: 6 or more miles (10+ km)
Ceiling: at least 12,000 feet AGL
Clouds: few clouds at 1800 feet AGL
Weather: no significant weather observed at this time

Forecast for: LGRP (RHODES/DIAGORAS , GR)
Text: TAF LGRP 130500Z 1306/1406 24010KT 9999 FEW020
Forecast period: 0600 UTC 13 August 2020 to 0600 UTC 14 August 2020
Forecast type: FROM: standard forecast or significant change
Winds: from the WSW (240 degrees) at 12 MPH (10 knots; 5.1 m/s)
Visibility: 6 or more miles (10+ km)
Ceiling: at least 12,000 feet AGL
Clouds: few clouds at 2000 feet AGL
Weather: no significant weather forecast for this period
Text: TEMPO 1315/1321 24010G20KT
Forecast period: 1500 to 2100 UTC 13 August 2020
Forecast type: TEMPORARY: The following changes expected for less than half the time period
Winds: from the WSW (240 degrees) at 12 MPH (10 knots; 5.1 m/s)
gusting to 23 MPH (20 knots; 10.3 m/s)
Visibility: missing
Ceiling: unknown
Clouds: missing
Weather: no significant weather forecast for this period

 AIRPORT MAP

 RUNWAY INFORMATION
Runway 07 Runway length 10846 ft Runway width 148 ft
Runway elevation 16 ft Runway displaced threshold 0 ft Runway heading 70
Runway 25 Runway length 10846 ft Runway width 148 ft
Runway elevation 17 ft Runway displaced threshold 0 ft Runway heading 250

 AIRPORT FREQUENCIES
Type A/G Name RDO Frequency 563.7 MHZ
Type APP Name RODOS APP Frequency 118.25 MHZ
Type ATIS Name ATIS Frequency 126.35 MHZ
Type GND Name GND Frequency 121.7 MHZ
Type TWR Name TWR Frequency 118.2 MHZ

 AIRPORT NEAR NAVIGATION AIDS
Type VOR-DME Name Paradisi Frequency 108600 KHZ
Type VOR-DME Name Rodos Frequency 115800 KHZ
Type TACAN Name Rodos Frequency 117400 KHZ
Type NDB Name Rodos Frequency 339 KHZ



Powered by Virtual Airlines Manager [v2.6.2]